Airfield :
LOGIN :

Register | Disclaimer

   EN    FR    IT 

 










Legend :    VFR   Marginal VFR   IFR   Intensive IFR   Very Intensive IFR
Visi :
Ceiling :
>= 8 km
>= 3000ft
5 to 8 km
1000 to 3000 ft
1500m to 5 km
500 to 1000 ft
800 to 1500m
200 to 500 ft
< 800m
< 200 ft
Symbols :   Thunderstorms  Fog  Heavy snow  Heavy precipitations  Wind > 20 kt
SIGMETs :     Misc.  Thunderstorms  Icing  Turbulence  Mountain Waves  Volcanic Ashes






- Airport Elevation : 74 ft
- IATA code : NDZ


ETMN - Cuxhaven Nordholz Sea AB

CURRENT METAR :
  • 071120Z 28017KT 9999 FEW008 BKN030 08/07 Q1006 RERA BLU

EXPIRED METARs :
  • 071043Z 29018KT 8000 -RADZ FEW006 BKN030 08/07 Q1005 RERA BLU
  • 071020Z 29017KT 5000 RADZ BR SCT008 SCT017 BKN038 08/07 Q1005 WHT
  • 071009Z 28016G26KT 2800 RADZ BR BKN008 BKN017 08/07 Q1005 YLO
  • 070951Z 28018KT 5000 RADZ BR FEW007 BKN017 08/07 Q1005 WHT
  • 070920Z 29013KT 4000 -RADZ BR BKN007 08/07 Q1005 RERA GRN
  • 070850Z 28017G29KT 2000 +RADZ BR FEW007 BKN018 08/07 Q1004 YLO

Expired Forecast.



MET'MAP, your aeronautical weather chart ! - Copyright ORBIFLY December 2007 - Disclaimer

ORBIFLY MET'MAP TEAM :

Programming & Development : Alexandra Zaïnal
Concept & original design : Baudouin d'Aumeries
Assistance for programming : Marc-Olivier Méhu
Technical & hardware support : Manuel Goepfert

Contact : metmap@orbifly.com




SOURCES & CREDITS :

   NOAA